Twentynine Palms (Self) Airport
KNXP : now visible

Airfield :











YOU CAN JOIN US ON...

 
LOGIN :

Register | Disclaimer

   EN    FR    IT 

 









Legend :    VFR   Marginal VFR   IFR   Intensive IFR   Very Intensive IFR
Visi :
Ceiling :
>= 8 km
>= 3000ft
5 to 8 km
1000 to 3000 ft
1500m to 5 km
500 to 1000 ft
800 to 1500m
200 to 500 ft
< 800m
< 200 ft
Symbols :   Thunderstorms  Fog  Heavy snow  Heavy precipitations  Wind > 20 kt






- Airport Elevation : 2051 ft


KNXP - Twentynine Palms (Self)

CURRENT METAR :
  • 172056Z 31006KT 7SM FEW200 21/M02 A3002 RMK AO2 SLP139 T02111022 58020 $

EXPIRED METARs :
  • 171956Z 36008KT 7SM SCT200 21/M02 A3005 RMK AO2 SLP148 T02061022 $
  • 171856Z 35011KT 7SM SCT200 20/M02 A3007 RMK AO2 SLP159 T02001022 $

TAF TAF KNXP
Valid from the 17 at 15:00 until the 18 at 15:00 UTC


1715/1815 30007KT 9999 FEW200 QNH2993INS
TEMPO 1717/1722 35007KT
TEMPO 1722/1801 01007KT T22/1722Z T08/1814Z



MET'MAP, your aeronautical weather chart ! - Copyright ORBIFLY December 2007 - Disclaimer

ORBIFLY MET'MAP TEAM :

Programming & Development : Alexandra Zaïnal
Concept & original design : Baudouin d'Aumeries
Assistance for programming : Marc-Olivier Méhu
Technical & hardware support : Manuel Goepfert

Contact : metmap@orbifly.com




SOURCES & CREDITS :

   NOAA       Earth
Advisory